Time;durP1;ratioP1;P1;durP2;ratioP2;P2;SDS_P1;SDS_P2;PMS_P1;PMS_P2;Temp;Humidity;BMP_temperature;BMP_pressure;BME280_temperature;BME280_humidity;BME280_pressure;Samples;Min_cycle;Max_cycle;Signal;HPM_P1;HPM_P2
2023/06/11 00:01:51;;;;;;;15.20;10.52;;;;;;;;;;5021296;28;20664;-74
2023/06/11 00:04:25;;;;;;;13.27;9.90;;;;;;;;;;5021648;28;20581;-74
2023/06/11 00:06:53;;;;;;;12.85;9.63;;;;;;;;;;5021351;28;20525;-74
2023/06/11 00:09:19;;;;;;;12.27;10.60;;;;;;;;;;5020464;28;20058;-75
2023/06/11 00:11:45;;;;;;;13.38;10.07;;;;;;;;;;5021404;28;20045;-74
2023/06/11 00:14:10;;;;;;;12.65;10.27;;;;;;;;;;5022468;28;20148;-74
2023/06/11 00:16:36;;;;;;;12.02;9.80;;;;;;;;;;5022705;28;20439;-74
2023/06/11 00:19:03;;;;;;;12.38;10.07;;;;;;;;;;5021328;28;20111;-74
2023/06/11 00:21:29;;;;;;;13.82;10.15;;;;;;;;;;5020163;28;20498;-74
2023/06/11 00:23:55;;;;;;;12.85;9.73;;;;;;;;;;5021550;28;20060;-74
2023/06/11 00:26:22;;;;;;;12.95;10.45;;;;;;;;;;5022238;28;20045;-74
2023/06/11 00:28:48;;;;;;;13.70;10.43;;;;;;;;;;5020650;28;20495;-74
2023/06/11 00:31:13;;;;;;;13.13;10.32;;;;;;;;;;5019148;28;20041;-73
2023/06/11 00:33:39;;;;;;;12.00;9.70;;;;;;;;;;5022218;28;20045;-73
2023/06/11 00:36:05;;;;;;;16.05;9.85;;;;;;;;;;5020761;28;20057;-74
2023/06/11 00:38:31;;;;;;;18.35;11.27;;;;;;;;;;5021571;28;20049;-73
2023/06/11 00:40:57;;;;;;;13.93;10.95;;;;;;;;;;5020730;28;20053;-74
2023/06/11 00:43:23;;;;;;;16.73;10.43;;;;;;;;;;4990029;28;20137;-74
2023/06/11 00:45:50;;;;;;;19.27;10.15;;;;;;;;;;5022163;28;20049;-74
2023/06/11 00:48:20;;;;;;;13.00;10.48;;;;;;;;;;5019769;28;20054;-74
2023/06/11 00:50:50;;;;;;;12.13;10.18;;;;;;;;;;5021773;28;21005;-74
2023/06/11 00:53:18;;;;;;;16.77;10.38;;;;;;;;;;5018907;28;20128;-74
2023/06/11 00:55:47;;;;;;;12.65;10.38;;;;;;;;;;5019014;28;20068;-74
2023/06/11 00:58:14;;;;;;;12.73;10.20;;;;;;;;;;5020197;28;20053;-74
2023/06/11 01:00:45;;;;;;;16.10;11.45;;;;;;;;;;5021576;28;20100;-74
2023/06/11 01:03:17;;;;;;;13.65;10.25;;;;;;;;;;5020998;28;20141;-74
2023/06/11 01:05:47;;;;;;;13.25;10.82;;;;;;;;;;5020280;28;20140;-74
2023/06/11 01:08:14;;;;;;;13.98;10.88;;;;;;;;;;5016978;28;20975;-74
2023/06/11 01:10:42;;;;;;;13.40;10.48;;;;;;;;;;5018731;28;20057;-71
2023/06/11 01:13:08;;;;;;;13.65;10.88;;;;;;;;;;5000862;28;20045;-71
2023/06/11 01:15:33;;;;;;;14.35;10.68;;;;;;;;;;5001140;28;20045;-72
2023/06/11 01:18:11;;;;;;;16.60;10.85;;;;;;;;;;5021460;28;20510;-71
2023/06/11 01:20:43;;;;;;;11.93;10.07;;;;;;;;;;5019846;28;20045;-71
2023/06/11 01:23:33;;;;;;;13.00;9.88;;;;;;;;;;5019312;28;20042;-71
2023/06/11 01:26:21;;;;;;;13.02;9.77;;;;;;;;;;5019990;28;20071;-71
2023/06/11 01:28:51;;;;;;;11.70;9.95;;;;;;;;;;5035953;28;20045;-71
2023/06/11 01:31:18;;;;;;;14.98;10.32;;;;;;;;;;5018818;28;20081;-71
2023/06/11 01:33:44;;;;;;;14.05;10.68;;;;;;;;;;5019523;28;20208;-71
2023/06/11 01:36:14;;;;;;;16.77;11.65;;;;;;;;;;5020921;28;20049;-71
2023/06/11 01:38:44;;;;;;;13.23;10.05;;;;;;;;;;5013709;28;20518;-71
2023/06/11 01:41:27;;;;;;;12.60;9.98;;;;;;;;;;4995926;28;20520;-71
2023/06/11 01:43:53;;;;;;;15.18;9.95;;;;;;;;;;5020458;28;20045;-71
2023/06/11 01:46:18;;;;;;;13.48;10.32;;;;;;;;;;5020609;28;20052;-71
2023/06/11 01:48:45;;;;;;;13.75;10.68;;;;;;;;;;5018123;28;20397;-71
2023/06/11 01:51:13;;;;;;;13.93;9.93;;;;;;;;;;5018223;28;20041;-72
2023/06/11 01:53:43;;;;;;;13.88;10.05;;;;;;;;;;5019338;28;20060;-72
2023/06/11 01:56:09;;;;;;;15.13;11.18;;;;;;;;;;5017058;28;20045;-71
2023/06/11 01:58:37;;;;;;;14.98;11.55;;;;;;;;;;5019116;28;20116;-71
2023/06/11 02:01:03;;;;;;;14.18;10.82;;;;;;;;;;5017279;28;20049;-71
2023/06/11 02:03:29;;;;;;;16.00;10.18;;;;;;;;;;5018939;28;20072;-71
2023/06/11 02:05:55;;;;;;;16.58;10.90;;;;;;;;;;5018734;28;20079;-71
2023/06/11 02:08:21;;;;;;;14.90;10.98;;;;;;;;;;5017649;28;20042;-71
2023/06/11 02:10:46;;;;;;;12.38;10.60;;;;;;;;;;5017936;28;20053;-72
2023/06/11 02:13:12;;;;;;;11.35;9.98;;;;;;;;;;5017959;28;20057;-72
2023/06/11 02:15:38;;;;;;;12.05;9.68;;;;;;;;;;5019009;28;20052;-72
2023/06/11 02:18:04;;;;;;;12.27;9.77;;;;;;;;;;5022733;28;20049;-72
2023/06/11 02:20:30;;;;;;;13.95;10.18;;;;;;;;;;5018652;28;20050;-72
2023/06/11 02:22:55;;;;;;;11.63;9.52;;;;;;;;;;5019446;28;20077;-72
2023/06/11 02:25:20;;;;;;;13.43;10.40;;;;;;;;;;5034633;28;20233;-72
2023/06/11 02:27:48;;;;;;;14.98;11.40;;;;;;;;;;5018478;28;20065;-72
2023/06/11 02:30:14;;;;;;;13.70;10.90;;;;;;;;;;5018448;28;20382;-72
2023/06/11 02:32:40;;;;;;;14.30;10.60;;;;;;;;;;5017982;28;20525;-72
2023/06/11 02:35:06;;;;;;;12.77;9.18;;;;;;;;;;5017804;28;20042;-72
2023/06/11 02:37:32;;;;;;;13.10;10.40;;;;;;;;;;5035245;28;20037;-72
2023/06/11 02:39:57;;;;;;;16.23;10.88;;;;;;;;;;5018448;28;20243;-72
2023/06/11 02:42:23;;;;;;;13.45;10.18;;;;;;;;;;5018326;28;20406;-73
2023/06/11 02:44:49;;;;;;;13.75;10.98;;;;;;;;;;5018065;28;20055;-72
2023/06/11 02:47:14;;;;;;;16.90;11.77;;;;;;;;;;5017464;28;20179;-73
2023/06/11 02:49:40;;;;;;;12.27;10.15;;;;;;;;;;5018126;28;20051;-72
2023/06/11 02:52:06;;;;;;;13.38;10.30;;;;;;;;;;5001904;28;20045;-72
2023/06/11 02:54:31;;;;;;;12.45;9.80;;;;;;;;;;5017729;28;20136;-73
2023/06/11 02:56:56;;;;;;;13.63;10.38;;;;;;;;;;5018160;28;20906;-72
2023/06/11 02:59:22;;;;;;;14.65;10.82;;;;;;;;;;5017345;28;20061;-72
2023/06/11 03:01:48;;;;;;;11.48;9.73;;;;;;;;;;5017932;28;20048;-72
2023/06/11 03:04:14;;;;;;;11.93;10.07;;;;;;;;;;5018435;28;20042;-73
2023/06/11 03:06:39;;;;;;;13.00;10.23;;;;;;;;;;5017431;28;20465;-73
2023/06/11 03:09:05;;;;;;;13.73;10.48;;;;;;;;;;5017367;28;20046;-73
2023/06/11 03:11:31;;;;;;;12.25;8.85;;;;;;;;;;5018241;28;20861;-72
2023/06/11 03:13:56;;;;;;;12.75;9.65;;;;;;;;;;5018393;28;20111;-73
2023/06/11 03:16:22;;;;;;;11.55;9.10;;;;;;;;;;5001041;28;20053;-72
2023/06/11 03:18:47;;;;;;;12.02;9.75;;;;;;;;;;5020137;28;20046;-73
2023/06/11 03:21:13;;;;;;;12.57;9.05;;;;;;;;;;5021102;28;20053;-73
2023/06/11 03:23:39;;;;;;;13.07;9.75;;;;;;;;;;5022082;28;20045;-73
2023/06/11 03:26:04;;;;;;;13.07;8.80;;;;;;;;;;5021863;28;20049;-73
2023/06/11 03:28:36;;;;;;;13.30;9.45;;;;;;;;;;5037241;28;20582;-73
2023/06/11 03:31:03;;;;;;;13.57;9.30;;;;;;;;;;5037319;28;20104;-73
2023/06/11 03:33:29;;;;;;;11.95;9.85;;;;;;;;;;5022107;28;20476;-73
2023/06/11 03:35:54;;;;;;;10.93;8.77;;;;;;;;;;5038606;28;20053;-73
2023/06/11 03:38:23;;;;;;;12.85;9.38;;;;;;;;;;5018320;28;20041;-72
2023/06/11 03:40:50;;;;;;;11.32;8.80;;;;;;;;;;5021244;28;20453;-73
2023/06/11 03:43:16;;;;;;;11.77;9.55;;;;;;;;;;5037364;28;20048;-73
2023/06/11 03:45:43;;;;;;;12.98;10.38;;;;;;;;;;5037992;28;20045;-72
2023/06/11 03:48:08;;;;;;;14.18;9.93;;;;;;;;;;5021347;28;20438;-72
2023/06/11 03:50:35;;;;;;;12.93;9.15;;;;;;;;;;5019761;28;20048;-72
2023/06/11 03:53:01;;;;;;;12.70;9.73;;;;;;;;;;5037036;28;20045;-73
2023/06/11 03:55:27;;;;;;;14.23;10.13;;;;;;;;;;5037738;28;20041;-73
2023/06/11 03:57:53;;;;;;;11.65;9.57;;;;;;;;;;5022539;28;20049;-72
2023/06/11 04:00:18;;;;;;;13.18;9.55;;;;;;;;;;5021890;28;20053;-72
2023/06/11 04:02:44;;;;;;;11.95;9.13;;;;;;;;;;5034468;28;20137;-71
2023/06/11 04:05:14;;;;;;;15.65;9.63;;;;;;;;;;5037167;28;20045;-71
2023/06/11 04:07:43;;;;;;;12.23;9.65;;;;;;;;;;5037436;28;20402;-72
2023/06/11 04:10:09;;;;;;;14.02;10.38;;;;;;;;;;5004601;28;20045;-72
2023/06/11 04:12:35;;;;;;;13.55;10.13;;;;;;;;;;5021732;28;20045;-71
2023/06/11 04:15:01;;;;;;;24.92;11.18;;;;;;;;;;5020505;28;20054;-72
2023/06/11 04:17:26;;;;;;;14.82;11.35;;;;;;;;;;5020990;28;20518;-72
2023/06/11 04:19:51;;;;;;;11.38;9.60;;;;;;;;;;5022390;28;20045;-72
2023/06/11 04:22:17;;;;;;;13.77;9.88;;;;;;;;;;5020188;28;20067;-72
2023/06/11 04:24:43;;;;;;;14.32;10.60;;;;;;;;;;5004201;28;20072;-72
2023/06/11 04:27:11;;;;;;;12.95;10.00;;;;;;;;;;5020268;28;20041;-72
2023/06/11 04:29:36;;;;;;;15.52;10.65;;;;;;;;;;5004056;28;20052;-72
2023/06/11 04:32:04;;;;;;;15.52;10.68;;;;;;;;;;5003512;28;20045;-72
2023/06/11 04:34:30;;;;;;;14.25;10.60;;;;;;;;;;5012014;28;20069;-72
2023/06/11 04:36:59;;;;;;;13.98;11.32;;;;;;;;;;5020411;28;20106;-71
2023/06/11 04:39:26;;;;;;;12.57;10.18;;;;;;;;;;5019906;28;20041;-71
2023/06/11 04:41:51;;;;;;;13.20;9.95;;;;;;;;;;5020432;28;20136;-72
2023/06/11 04:44:21;;;;;;;13.85;10.68;;;;;;;;;;5003337;28;20053;-72
2023/06/11 04:46:48;;;;;;;16.50;10.50;;;;;;;;;;5020311;28;20452;-73
2023/06/11 04:49:20;;;;;;;11.98;9.98;;;;;;;;;;5021294;28;20041;-71
2023/06/11 04:51:48;;;;;;;14.90;10.48;;;;;;;;;;5004527;28;20033;-73
2023/06/11 04:54:17;;;;;;;14.13;10.50;;;;;;;;;;5020323;28;20510;-73
2023/06/11 04:56:44;;;;;;;17.35;11.00;;;;;;;;;;5019739;28;20110;-73
2023/06/11 04:59:10;;;;;;;13.80;9.60;;;;;;;;;;5019305;28;20530;-73
2023/06/11 05:01:37;;;;;;;12.55;8.52;;;;;;;;;;5037071;28;20037;-73
2023/06/11 05:04:04;;;;;;;16.25;8.25;;;;;;;;;;5020321;28;20052;-72
2023/06/11 05:06:30;;;;;;;8.68;7.78;;;;;;;;;;5036142;28;20049;-73
2023/06/11 05:08:56;;;;;;;8.77;7.25;;;;;;;;;;5036616;28;20045;-73
2023/06/11 05:11:22;;;;;;;15.38;7.32;;;;;;;;;;5002845;28;20041;-73
2023/06/11 05:13:48;;;;;;;8.90;6.93;;;;;;;;;;5036991;28;20091;-73
2023/06/11 05:16:14;;;;;;;8.85;7.15;;;;;;;;;;5019569;28;20053;-73
2023/06/11 05:18:40;;;;;;;11.15;7.55;;;;;;;;;;5019368;28;20056;-72
2023/06/11 05:21:07;;;;;;;8.38;7.10;;;;;;;;;;5019512;28;20064;-73
2023/06/11 05:23:33;;;;;;;8.00;7.07;;;;;;;;;;5036919;28;20505;-71
2023/06/11 05:26:11;;;;;;;11.63;6.68;;;;;;;;;;5037285;28;20077;-70
2023/06/11 05:28:39;;;;;;;10.25;6.15;;;;;;;;;;5036554;28;20518;-71
2023/06/11 05:31:09;;;;;;;9.45;6.03;;;;;;;;;;5019289;28;20047;-72
2023/06/11 05:33:36;;;;;;;8.63;6.40;;;;;;;;;;5003358;28;20517;-73
2023/06/11 05:36:01;;;;;;;8.10;6.03;;;;;;;;;;5019663;28;20048;-69
2023/06/11 05:38:28;;;;;;;8.05;6.18;;;;;;;;;;5036401;28;20049;-73
2023/06/11 05:40:54;;;;;;;8.90;6.30;;;;;;;;;;5015272;28;20132;-74
2023/06/11 05:43:20;;;;;;;7.60;6.50;;;;;;;;;;5035194;28;20135;-74
2023/06/11 05:45:47;;;;;;;8.13;6.60;;;;;;;;;;5011079;28;20053;-74
2023/06/11 05:48:14;;;;;;;6.60;5.82;;;;;;;;;;5018645;28;20053;-75
2023/06/11 05:50:40;;;;;;;9.43;7.47;;;;;;;;;;4977658;28;20763;-73
2023/06/11 05:53:07;;;;;;;6.38;5.63;;;;;;;;;;4976940;28;20087;-72
2023/06/11 05:55:33;;;;;;;8.73;5.85;;;;;;;;;;4990266;28;20057;-74
2023/06/11 05:58:00;;;;;;;7.28;5.82;;;;;;;;;;4988060;28;20084;-73
2023/06/11 06:00:26;;;;;;;6.30;5.63;;;;;;;;;;4991925;28;20052;-73
2023/06/11 06:02:53;;;;;;;10.98;6.15;;;;;;;;;;4990133;28;20048;-74
2023/06/11 06:05:26;;;;;;;7.13;5.57;;;;;;;;;;4990062;28;20133;-73
2023/06/11 06:07:51;;;;;;;7.32;5.50;;;;;;;;;;4989347;28;20049;-74
2023/06/11 06:10:17;;;;;;;6.20;5.60;;;;;;;;;;4986406;28;20578;-73
2023/06/11 06:12:43;;;;;;;6.07;5.47;;;;;;;;;;4987576;28;20128;-72
2023/06/11 06:15:10;;;;;;;5.25;4.75;;;;;;;;;;4989574;28;21227;-76
2023/06/11 06:17:38;;;;;;;6.32;5.40;;;;;;;;;;5014892;28;20438;-74
2023/06/11 06:20:05;;;;;;;6.75;5.07;;;;;;;;;;5016468;28;20049;-75
2023/06/11 06:22:31;;;;;;;5.00;4.60;;;;;;;;;;5012440;28;20521;-75
2023/06/11 06:24:57;;;;;;;6.75;4.78;;;;;;;;;;5015653;28;20148;-74
2023/06/11 06:27:23;;;;;;;7.05;5.15;;;;;;;;;;5016151;28;20175;-74
2023/06/11 06:29:49;;;;;;;8.07;4.82;;;;;;;;;;5017299;28;20170;-74
2023/06/11 06:32:15;;;;;;;6.68;5.32;;;;;;;;;;5034274;28;20140;-74
2023/06/11 06:34:41;;;;;;;5.80;4.85;;;;;;;;;;5033831;28;20579;-74
2023/06/11 06:37:09;;;;;;;6.47;5.00;;;;;;;;;;5017189;28;20079;-74
2023/06/11 06:39:35;;;;;;;6.10;5.25;;;;;;;;;;5018750;28;20048;-75
2023/06/11 06:42:00;;;;;;;10.30;5.70;;;;;;;;;;5034457;28;20045;-74
2023/06/11 06:44:37;;;;;;;7.25;5.18;;;;;;;;;;5017959;28;20096;-73
2023/06/11 06:47:02;;;;;;;7.70;5.15;;;;;;;;;;5017836;28;20395;-74
2023/06/11 06:49:28;;;;;;;7.20;5.57;;;;;;;;;;5034088;28;20837;-73
2023/06/11 06:51:53;;;;;;;6.82;5.53;;;;;;;;;;5018425;28;20410;-74
2023/06/11 06:54:19;;;;;;;7.85;5.47;;;;;;;;;;5036965;28;20053;-73
2023/06/11 06:56:47;;;;;;;6.07;4.82;;;;;;;;;;5022507;28;20513;-72
2023/06/11 06:59:14;;;;;;;7.75;5.72;;;;;;;;;;5023399;28;20049;-72
2023/06/11 07:01:40;;;;;;;8.60;5.70;;;;;;;;;;5038364;28;20045;-73
2023/06/11 07:04:06;;;;;;;6.47;5.45;;;;;;;;;;5038540;28;20136;-74
2023/06/11 07:06:32;;;;;;;7.68;6.05;;;;;;;;;;5022168;28;20151;-74
2023/06/11 07:08:58;;;;;;;8.55;5.95;;;;;;;;;;5037183;28;20073;-74
2023/06/11 07:11:23;;;;;;;7.28;5.55;;;;;;;;;;5024522;28;20045;-74
2023/06/11 07:13:49;;;;;;;6.38;5.72;;;;;;;;;;5005378;28;20099;-74
2023/06/11 07:16:15;;;;;;;7.25;5.70;;;;;;;;;;5038111;28;20041;-74
2023/06/11 07:18:46;;;;;;;6.63;6.03;;;;;;;;;;5020384;28;20046;-75
2023/06/11 07:21:14;;;;;;;7.38;6.18;;;;;;;;;;5017017;28;20195;-74
2023/06/11 07:23:40;;;;;;;10.43;5.80;;;;;;;;;;5021097;28;20072;-74
2023/06/11 07:26:06;;;;;;;8.85;5.55;;;;;;;;;;5021903;28;20049;-74
2023/06/11 07:28:32;;;;;;;5.63;5.00;;;;;;;;;;5020551;28;20045;-73
2023/06/11 07:30:58;;;;;;;6.28;5.68;;;;;;;;;;5021062;28;20083;-73
2023/06/11 07:33:25;;;;;;;7.50;6.70;;;;;;;;;;5021107;28;20080;-74
2023/06/11 07:35:52;;;;;;;7.22;5.18;;;;;;;;;;5038852;28;20153;-74
2023/06/11 07:38:18;;;;;;;6.10;5.50;;;;;;;;;;5021540;28;20409;-74
2023/06/11 07:40:43;;;;;;;7.25;5.47;;;;;;;;;;5037661;28;20053;-74
2023/06/11 07:43:09;;;;;;;5.65;5.15;;;;;;;;;;5022855;28;20095;-74
2023/06/11 07:45:35;;;;;;;7.70;5.35;;;;;;;;;;5037930;28;20148;-74
2023/06/11 07:48:02;;;;;;;6.05;5.30;;;;;;;;;;5021026;28;20040;-73
2023/06/11 07:50:27;;;;;;;8.30;5.60;;;;;;;;;;5008092;28;20579;-73
2023/06/11 07:52:53;;;;;;;6.82;5.57;;;;;;;;;;5018046;28;20034;-73
2023/06/11 07:55:25;;;;;;;6.45;5.68;;;;;;;;;;5018686;28;20110;-73
2023/06/11 07:57:50;;;;;;;8.90;5.25;;;;;;;;;;5019358;28;20410;-74
2023/06/11 08:00:17;;;;;;;6.90;6.05;;;;;;;;;;5019324;28;20148;-74
2023/06/11 08:02:43;;;;;;;6.70;5.60;;;;;;;;;;5020139;28;20442;-74
2023/06/11 08:05:11;;;;;;;6.13;5.18;;;;;;;;;;5018849;28;20107;-74
2023/06/11 08:07:37;;;;;;;6.43;5.32;;;;;;;;;;5019577;28;20037;-74
2023/06/11 08:10:03;;;;;;;9.82;5.20;;;;;;;;;;5019743;28;20047;-73
2023/06/11 08:12:29;;;;;;;6.50;5.88;;;;;;;;;;5020167;28;20067;-73
2023/06/11 08:14:55;;;;;;;6.32;5.53;;;;;;;;;;5020403;28;20046;-74
2023/06/11 08:17:20;;;;;;;7.47;5.50;;;;;;;;;;5019868;28;20601;-74
2023/06/11 08:19:46;;;;;;;6.00;5.07;;;;;;;;;;5020542;28;20056;-74
2023/06/11 08:22:11;;;;;;;10.52;6.43;;;;;;;;;;5020899;28;20041;-74
2023/06/11 08:24:37;;;;;;;7.25;6.18;;;;;;;;;;5019574;28;20054;-74
2023/06/11 08:27:02;;;;;;;6.65;6.00;;;;;;;;;;5019372;28;20053;-75
2023/06/11 08:29:28;;;;;;;6.32;5.72;;;;;;;;;;5018296;28;20037;-75
2023/06/11 08:31:53;;;;;;;6.78;5.97;;;;;;;;;;5021232;28;20056;-75
2023/06/11 08:34:19;;;;;;;7.10;5.88;;;;;;;;;;5025073;28;20060;-75
2023/06/11 08:36:44;;;;;;;6.82;5.47;;;;;;;;;;5019024;28;20048;-74
2023/06/11 08:39:10;;;;;;;8.23;4.85;;;;;;;;;;5017944;28;20079;-75
2023/06/11 08:41:36;;;;;;;6.60;4.78;;;;;;;;;;5018937;28;20054;-74
2023/06/11 08:44:01;;;;;;;5.47;4.80;;;;;;;;;;5018562;28;20148;-75
2023/06/11 08:46:30;;;;;;;6.20;5.70;;;;;;;;;;5019611;28;20203;-75
2023/06/11 08:49:00;;;;;;;5.72;5.22;;;;;;;;;;5019311;28;20053;-75
2023/06/11 08:51:27;;;;;;;6.63;4.85;;;;;;;;;;5017281;28;20049;-74
2023/06/11 08:53:53;;;;;;;5.35;4.90;;;;;;;;;;5019316;28;20276;-74
2023/06/11 08:56:19;;;;;;;8.23;4.43;;;;;;;;;;5019461;28;20056;-74
2023/06/11 08:58:45;;;;;;;5.22;4.70;;;;;;;;;;5019700;28;20049;-74
2023/06/11 09:01:11;;;;;;;4.97;4.47;;;;;;;;;;5020668;28;20049;-74
2023/06/11 09:03:38;;;;;;;5.80;4.50;;;;;;;;;;5035006;28;20082;-74
2023/06/11 09:06:05;;;;;;;5.97;4.63;;;;;;;;;;5019986;28;20144;-73
2023/06/11 09:08:30;;;;;;;5.82;4.30;;;;;;;;;;5018052;28;20056;-74
2023/06/11 09:10:56;;;;;;;4.53;4.13;;;;;;;;;;5019752;28;20049;-74
2023/06/11 09:13:26;;;;;;;4.68;4.18;;;;;;;;;;5017602;28;20053;-74
2023/06/11 09:15:54;;;;;;;4.72;4.18;;;;;;;;;;5019228;28;20540;-74
2023/06/11 09:18:24;;;;;;;6.07;4.38;;;;;;;;;;5019048;28;20128;-75
2023/06/11 09:21:00;;;;;;;5.22;4.38;;;;;;;;;;5017374;28;20049;-73
2023/06/11 09:23:31;;;;;;;4.75;4.25;;;;;;;;;;5016287;28;20115;-74
2023/06/11 09:25:58;;;;;;;4.47;4.10;;;;;;;;;;5019330;28;20053;-74
2023/06/11 09:28:31;;;;;;;7.00;4.00;;;;;;;;;;5018030;28;20900;-74
2023/06/11 09:30:58;;;;;;;5.07;4.32;;;;;;;;;;5018069;28;20130;-74
2023/06/11 09:33:24;;;;;;;4.97;4.20;;;;;;;;;;5000063;28;20486;-74
2023/06/11 09:35:50;;;;;;;6.72;5.00;;;;;;;;;;5020234;28;20099;-74
2023/06/11 09:38:17;;;;;;;5.05;4.65;;;;;;;;;;5017221;28;20064;-74
2023/06/11 09:40:46;;;;;;;6.05;3.88;;;;;;;;;;5017307;28;20639;-74
2023/06/11 09:43:13;;;;;;;4.13;3.78;;;;;;;;;;5015122;28;20049;-74
2023/06/11 09:45:41;;;;;;;4.75;3.97;;;;;;;;;;5019055;28;20060;-73
2023/06/11 09:48:10;;;;;;;7.72;3.92;;;;;;;;;;5034448;28;20049;-74
2023/06/11 09:50:36;;;;;;;3.63;3.33;;;;;;;;;;5019295;28;20036;-74
2023/06/11 09:53:03;;;;;;;4.38;3.97;;;;;;;;;;5015995;28;20152;-74
2023/06/11 09:55:36;;;;;;;4.45;3.63;;;;;;;;;;5033537;28;20048;-74
2023/06/11 09:58:02;;;;;;;3.75;3.35;;;;;;;;;;5018335;28;20045;-74
2023/06/11 10:00:29;;;;;;;3.67;3.38;;;;;;;;;;5018113;28;20139;-74
2023/06/11 10:02:54;;;;;;;5.05;3.03;;;;;;;;;;5017315;28;20045;-74
2023/06/11 10:05:20;;;;;;;3.60;3.30;;;;;;;;;;5015597;28;20049;-75
2023/06/11 10:08:08;;;;;;;4.32;3.80;;;;;;;;;;5018671;28;20132;-74
2023/06/11 10:10:38;;;;;;;3.85;3.45;;;;;;;;;;5016684;28;20935;-74
2023/06/11 10:13:04;;;;;;;4.55;3.67;;;;;;;;;;5018606;28;20084;-74
2023/06/11 10:15:31;;;;;;;4.35;3.83;;;;;;;;;;5000262;28;20518;-74
2023/06/11 10:17:57;;;;;;;3.30;3.00;;;;;;;;;;5013575;28;20738;-75
2023/06/11 10:20:28;;;;;;;3.10;2.90;;;;;;;;;;5017381;28;20045;-74
2023/06/11 10:23:09;;;;;;;3.05;2.80;;;;;;;;;;5016931;28;20449;-74
2023/06/11 10:25:40;;;;;;;5.63;3.53;;;;;;;;;;5009243;28;20529;-74
2023/06/11 10:28:06;;;;;;;;;;;;;;;;;;5014988;28;20124;-74
2023/06/11 10:30:32;;;;;;;3.05;2.83;;;;;;;;;;5017943;28;20064;-74
2023/06/11 10:32:58;;;;;;;4.32;3.38;;;;;;;;;;5018728;28;20049;-73
2023/06/11 10:35:32;;;;;;;4.88;2.70;;;;;;;;;;5017882;28;20707;-73
2023/06/11 10:38:06;;;;;;;3.05;2.85;;;;;;;;;;5017708;28;20060;-73
2023/06/11 10:40:35;;;;;;;3.17;2.88;;;;;;;;;;5019124;28;20402;-74
2023/06/11 10:43:04;;;;;;;3.83;2.78;;;;;;;;;;5019626;28;20056;-73
2023/06/11 10:45:36;;;;;;;5.78;2.90;;;;;;;;;;5017011;28;20414;-73
2023/06/11 10:48:02;;;;;;;3.78;3.10;;;;;;;;;;5017882;28;20191;-73
2023/06/11 10:50:31;;;;;;;3.10;2.80;;;;;;;;;;5019049;28;20124;-74
2023/06/11 10:53:13;;;;;;;7.95;3.13;;;;;;;;;;5019641;28;20045;-74
2023/06/11 10:55:47;;;;;;;3.35;3.05;;;;;;;;;;5012237;28;20050;-74
2023/06/11 10:58:22;;;;;;;5.22;2.83;;;;;;;;;;5018437;28;20674;-75
2023/06/11 11:00:51;;;;;;;4.80;2.67;;;;;;;;;;5018483;28;20056;-74
2023/06/11 11:03:21;;;;;;;4.05;2.85;;;;;;;;;;5018275;28;20061;-74
2023/06/11 11:05:47;;;;;;;3.85;2.97;;;;;;;;;;5018759;28;20581;-73
2023/06/11 11:08:12;;;;;;;2.88;2.67;;;;;;;;;;5017536;28;20059;-73
2023/06/11 11:10:38;;;;;;;4.47;2.42;;;;;;;;;;5016333;28;20044;-74
2023/06/11 11:13:03;;;;;;;3.15;2.75;;;;;;;;;;5018946;28;20049;-74
2023/06/11 11:15:30;;;;;;;4.85;2.75;;;;;;;;;;5033141;28;20139;-74
2023/06/11 11:17:55;;;;;;;4.18;2.80;;;;;;;;;;5018488;28;20046;-74
2023/06/11 11:20:21;;;;;;;3.33;2.72;;;;;;;;;;5015691;28;20049;-74
2023/06/11 11:22:51;;;;;;;6.40;3.00;;;;;;;;;;5017820;28;20041;-74
2023/06/11 11:25:19;;;;;;;4.43;2.85;;;;;;;;;;5017089;28;20045;-74
2023/06/11 11:27:45;;;;;;;3.08;2.78;;;;;;;;;;5018327;28;20049;-75
2023/06/11 11:30:10;;;;;;;3.78;2.70;;;;;;;;;;5022255;28;20056;-75
2023/06/11 11:32:36;;;;;;;3.15;2.60;;;;;;;;;;5015173;28;20084;-74
2023/06/11 11:35:04;;;;;;;2.70;2.50;;;;;;;;;;5016814;28;20140;-75
2023/06/11 11:37:30;;;;;;;2.55;2.20;;;;;;;;;;5017799;28;20041;-73
2023/06/11 11:39:59;;;;;;;3.35;2.30;;;;;;;;;;5020146;28;20534;-75
2023/06/11 11:42:25;;;;;;;2.78;2.58;;;;;;;;;;5023620;28;20456;-73
2023/06/11 11:44:54;;;;;;;3.70;2.45;;;;;;;;;;5021754;28;20506;-74
2023/06/11 11:47:21;;;;;;;3.70;2.67;;;;;;;;;;5020732;28;20076;-74
2023/06/11 11:49:56;;;;;;;3.00;2.42;;;;;;;;;;5022093;28;20042;-74
2023/06/11 11:52:23;;;;;;;3.97;2.53;;;;;;;;;;5019226;28;20483;-74
2023/06/11 11:54:52;;;;;;;2.33;2.00;;;;;;;;;;5015491;28;20925;-74
2023/06/11 11:57:21;;;;;;;3.05;2.75;;;;;;;;;;5016240;28;20128;-74
2023/06/11 11:59:51;;;;;;;6.07;3.70;;;;;;;;;;5017934;28;20410;-75
2023/06/11 12:02:16;;;;;;;4.57;2.70;;;;;;;;;;5019662;28;20045;-73
2023/06/11 12:04:46;;;;;;;3.80;2.75;;;;;;;;;;5021668;28;20045;-74
2023/06/11 12:07:17;;;;;;;3.15;2.70;;;;;;;;;;5019745;28;20075;-73
2023/06/11 12:09:43;;;;;;;2.50;2.30;;;;;;;;;;5020115;28;20556;-74
2023/06/11 12:12:09;;;;;;;5.28;2.63;;;;;;;;;;5020899;28;20053;-74
2023/06/11 12:14:35;;;;;;;4.38;2.50;;;;;;;;;;5036848;28;20045;-75
2023/06/11 12:17:01;;;;;;;2.60;2.40;;;;;;;;;;5021314;28;20088;-75
2023/06/11 12:19:29;;;;;;;3.45;2.55;;;;;;;;;;5019379;28;20046;-75
2023/06/11 12:21:55;;;;;;;4.75;2.47;;;;;;;;;;5019173;28;20050;-76
2023/06/11 12:24:22;;;;;;;3.15;2.70;;;;;;;;;;5018483;28;20150;-74
2023/06/11 12:26:49;;;;;;;3.40;2.65;;;;;;;;;;4996036;28;20045;-74
2023/06/11 12:29:16;;;;;;;6.38;2.60;;;;;;;;;;5020708;28;20049;-73
2023/06/11 12:31:41;;;;;;;6.07;2.60;;;;;;;;;;5018073;28;20060;-74
2023/06/11 12:34:10;;;;;;;4.68;2.50;;;;;;;;;;5019202;28;20037;-74
2023/06/11 12:36:36;;;;;;;4.35;2.33;;;;;;;;;;5020383;28;20060;-74
2023/06/11 12:39:04;;;;;;;2.50;2.30;;;;;;;;;;5017694;28;20049;-75
2023/06/11 12:41:31;;;;;;;2.63;2.20;;;;;;;;;;5019573;28;20083;-75
2023/06/11 12:43:59;;;;;;;5.10;2.78;;;;;;;;;;5022927;28;20088;-75
2023/06/11 12:46:28;;;;;;;2.85;2.60;;;;;;;;;;5024500;28;20057;-74
2023/06/11 12:48:53;;;;;;;3.85;2.20;;;;;;;;;;5020114;28;20204;-74
2023/06/11 12:51:19;;;;;;;3.78;2.40;;;;;;;;;;5026022;28;20140;-74
2023/06/11 12:53:45;;;;;;;2.58;2.38;;;;;;;;;;5020145;28;20152;-74
2023/06/11 12:56:10;;;;;;;2.95;2.28;;;;;;;;;;5020037;28;20053;-74
2023/06/11 12:58:36;;;;;;;8.20;2.00;;;;;;;;;;5019908;28;20056;-73
2023/06/11 13:01:02;;;;;;;8.35;2.67;;;;;;;;;;5019465;28;20057;-75
2023/06/11 13:03:28;;;;;;;3.88;2.42;;;;;;;;;;5020512;28;20053;-74
2023/06/11 13:05:53;;;;;;;4.45;2.70;;;;;;;;;;5019730;28;20061;-74
2023/06/11 13:08:18;;;;;;;4.63;2.70;;;;;;;;;;5019885;28;20751;-73
2023/06/11 13:10:44;;;;;;;2.45;2.25;;;;;;;;;;5018853;28;20080;-75
2023/06/11 13:13:10;;;;;;;3.72;2.22;;;;;;;;;;5019917;28;20057;-72
2023/06/11 13:15:36;;;;;;;5.10;2.20;;;;;;;;;;5019189;28;20115;-73
2023/06/11 13:18:02;;;;;;;3.13;2.33;;;;;;;;;;5020211;28;20507;-74
2023/06/11 13:20:28;;;;;;;2.40;2.20;;;;;;;;;;5019300;28;20049;-73
2023/06/11 13:22:54;;;;;;;7.43;2.38;;;;;;;;;;5019309;28;20124;-75
2023/06/11 13:25:20;;;;;;;2.72;2.22;;;;;;;;;;5018547;28;20063;-73
2023/06/11 13:27:45;;;;;;;4.72;2.53;;;;;;;;;;5019644;28;20156;-74
2023/06/11 13:30:12;;;;;;;3.05;2.40;;;;;;;;;;5020828;28;20052;-73
2023/06/11 13:32:38;;;;;;;4.78;2.38;;;;;;;;;;5019106;28;20051;-73
2023/06/11 13:35:04;;;;;;;2.40;2.20;;;;;;;;;;5017718;28;20073;-72
2023/06/11 13:37:29;;;;;;;5.70;2.20;;;;;;;;;;5019176;28;20409;-72
2023/06/11 13:39:55;;;;;;;3.78;1.80;;;;;;;;;;5018904;28;20055;-73
2023/06/11 13:42:20;;;;;;;2.55;1.98;;;;;;;;;;5019636;28;20045;-73
2023/06/11 13:44:46;;;;;;;1.95;1.85;;;;;;;;;;5019543;28;20060;-73
2023/06/11 13:47:12;;;;;;;2.28;2.10;;;;;;;;;;5019056;28;20056;-73
2023/06/11 13:49:37;;;;;;;3.55;2.10;;;;;;;;;;5018174;28;20601;-73
2023/06/11 13:52:03;;;;;;;2.30;2.10;;;;;;;;;;5017092;28;20506;-73
2023/06/11 13:54:31;;;;;;;3.22;2.00;;;;;;;;;;5018180;28;21108;-74
2023/06/11 13:56:57;;;;;;;2.47;2.28;;;;;;;;;;5019559;28;20053;-73
2023/06/11 13:59:23;;;;;;;2.10;1.98;;;;;;;;;;5017720;28;20049;-73
2023/06/11 14:01:48;;;;;;;5.40;1.80;;;;;;;;;;5019593;28;20128;-73
2023/06/11 14:04:14;;;;;;;4.15;2.05;;;;;;;;;;5018781;28;20767;-74
2023/06/11 14:06:39;;;;;;;6.78;2.10;;;;;;;;;;5018025;28;21001;-74
2023/06/11 14:09:04;;;;;;;2.58;2.10;;;;;;;;;;5018181;28;21081;-75
2023/06/11 14:11:30;;;;;;;3.55;1.92;;;;;;;;;;5016712;28;20060;-74
2023/06/11 14:13:58;;;;;;;6.00;1.73;;;;;;;;;;5019277;28;20107;-73
2023/06/11 14:16:24;;;;;;;1.90;1.70;;;;;;;;;;5017911;28;20156;-74
2023/06/11 14:18:49;;;;;;;3.10;2.08;;;;;;;;;;5019332;28;20532;-73
2023/06/11 14:21:15;;;;;;;3.33;1.98;;;;;;;;;;5018020;28;20045;-74
2023/06/11 14:23:40;;;;;;;1.95;1.75;;;;;;;;;;5019200;28;20104;-74
2023/06/11 14:26:06;;;;;;;2.35;1.70;;;;;;;;;;5017580;28;20041;-73
2023/06/11 14:28:31;;;;;;;2.33;1.85;;;;;;;;;;5017582;28;20061;-74
2023/06/11 14:30:57;;;;;;;7.13;1.92;;;;;;;;;;5017715;28;20053;-74
2023/06/11 14:33:22;;;;;;;2.65;1.90;;;;;;;;;;5018554;28;20192;-74
2023/06/11 14:35:50;;;;;;;2.38;1.98;;;;;;;;;;5016361;28;20510;-74